createdAt,value
2023-02-09T00:01:09.626Z,1.80
2023-02-09T00:03:36.795Z,1.90
2023-02-09T00:06:06.148Z,1.80
2023-02-09T00:08:36.625Z,1.70
2023-02-09T00:11:12.746Z,1.70
2023-02-09T00:13:39.477Z,1.70
2023-02-09T00:16:06.793Z,1.60
2023-02-09T00:18:34.129Z,1.60
2023-02-09T00:21:10.790Z,1.50
2023-02-09T00:23:40.434Z,1.50
2023-02-09T00:26:10.688Z,1.50
2023-02-09T00:28:38.159Z,1.50
2023-02-09T00:31:10.282Z,1.50
2023-02-09T00:33:37.944Z,1.40
2023-02-09T00:36:10.648Z,1.40
2023-02-09T00:38:37.522Z,1.40
2023-02-09T00:41:05.175Z,1.40
2023-02-09T00:43:32.831Z,1.40
2023-02-09T00:45:59.907Z,1.40
2023-02-09T00:48:27.021Z,1.40
2023-02-09T00:50:54.178Z,1.40
2023-02-09T00:53:22.354Z,1.40
2023-02-09T00:55:49.463Z,1.40
2023-02-09T00:58:17.120Z,1.40
2023-02-09T01:00:44.128Z,1.40
2023-02-09T01:03:11.429Z,1.40
2023-02-09T01:05:42.180Z,1.40
2023-02-09T01:08:09.438Z,1.40
2023-02-09T01:10:38.368Z,1.50
2023-02-09T01:13:05.574Z,1.50
2023-02-09T01:15:32.598Z,1.50
2023-02-09T01:18:00.189Z,1.50
2023-02-09T01:20:27.712Z,1.50
2023-02-09T01:22:54.577Z,1.60
2023-02-09T01:25:21.412Z,1.60
2023-02-09T01:27:48.157Z,1.70
2023-02-09T01:30:15.145Z,1.60
2023-02-09T01:32:42.159Z,1.70
2023-02-09T01:35:09.118Z,1.70
2023-02-09T01:37:36.255Z,1.70
2023-02-09T01:40:04.040Z,1.70
2023-02-09T01:42:30.789Z,1.70
2023-02-09T01:45:25.412Z,1.70
2023-02-09T01:48:00.783Z,1.80
2023-02-09T01:50:30.919Z,1.80
2023-02-09T01:52:57.979Z,1.80
2023-02-09T01:55:29.108Z,1.80
2023-02-09T01:58:02.893Z,1.80
2023-02-09T02:00:29.687Z,1.70
2023-02-09T02:03:04.580Z,1.70
2023-02-09T02:05:37.633Z,1.70
2023-02-09T02:08:06.548Z,1.70
2023-02-09T02:10:33.342Z,1.70
2023-02-09T02:13:00.920Z,1.70
2023-02-09T02:15:37.130Z,1.70
2023-02-09T02:18:34.459Z,1.70
2023-02-09T02:21:20.038Z,1.80
2023-02-09T02:23:56.015Z,1.80
2023-02-09T02:26:40.776Z,1.80
2023-02-09T02:29:45.049Z,1.80
2023-02-09T02:32:20.777Z,1.90
2023-02-09T02:35:01.567Z,1.90
2023-02-09T02:37:43.738Z,1.90
2023-02-09T02:40:21.402Z,1.90
2023-02-09T02:42:53.981Z,1.90
2023-02-09T02:45:44.856Z,1.90
2023-02-09T02:48:11.513Z,2.00
2023-02-09T02:50:55.065Z,2.00
2023-02-09T02:53:26.594Z,2.00
2023-02-09T02:55:55.222Z,2.00
2023-02-09T02:58:23.869Z,2.00
2023-02-09T03:00:55.477Z,2.00
2023-02-09T03:03:25.217Z,2.00
2023-02-09T03:05:52.401Z,2.00
2023-02-09T03:08:19.196Z,2.00
2023-02-09T03:10:46.590Z,2.00
2023-02-09T03:13:30.951Z,2.00
2023-02-09T03:16:07.108Z,2.00
2023-02-09T03:18:47.490Z,2.00
2023-02-09T03:21:49.271Z,2.00
2023-02-09T03:24:39.680Z,2.00
2023-02-09T03:27:29.307Z,2.00
2023-02-09T03:30:01.120Z,1.90
2023-02-09T03:32:27.989Z,2.00
2023-02-09T03:34:55.934Z,2.00
2023-02-09T03:37:23.367Z,2.00
2023-02-09T03:39:50.136Z,2.00
2023-02-09T03:42:16.819Z,2.00
2023-02-09T03:44:43.478Z,1.90
2023-02-09T03:47:10.618Z,1.90
2023-02-09T03:49:39.993Z,1.90
2023-02-09T03:52:10.131Z,1.90
2023-02-09T03:54:37.353Z,1.90
2023-02-09T03:57:05.126Z,1.90
2023-02-09T03:59:35.445Z,1.90
2023-02-09T04:02:02.289Z,1.90
2023-02-09T04:04:29.242Z,1.90
2023-02-09T04:06:56.268Z,2.00
2023-02-09T04:09:24.007Z,1.90
2023-02-09T04:11:51.068Z,1.90
2023-02-09T04:14:17.792Z,1.90
2023-02-09T04:16:44.800Z,1.90
2023-02-09T04:19:12.392Z,1.90
2023-02-09T04:21:39.402Z,1.90
2023-02-09T04:24:06.741Z,2.00
2023-02-09T04:26:33.627Z,1.90
2023-02-09T04:29:00.574Z,1.90
2023-02-09T04:31:27.392Z,1.90
2023-02-09T04:33:54.151Z,1.90
2023-02-09T04:36:23.315Z,1.90
2023-02-09T04:38:50.797Z,1.90
2023-02-09T04:41:17.943Z,1.90
2023-02-09T04:43:46.115Z,1.90
2023-02-09T04:46:14.638Z,1.90
2023-02-09T04:48:41.796Z,1.80
2023-02-09T04:51:08.693Z,1.90
2023-02-09T04:53:35.455Z,1.80
2023-02-09T04:56:02.233Z,1.80
2023-02-09T04:58:47.267Z,1.80
2023-02-09T05:01:20.011Z,1.80
2023-02-09T05:03:46.825Z,1.80
2023-02-09T05:06:13.585Z,1.80
2023-02-09T05:08:40.370Z,1.80
2023-02-09T05:11:07.082Z,1.80
2023-02-09T05:13:33.907Z,1.90
2023-02-09T05:16:04.409Z,1.80
2023-02-09T05:18:31.147Z,2.00
2023-02-09T05:20:57.885Z,2.00
2023-02-09T05:23:24.610Z,2.00
2023-02-09T05:25:51.274Z,2.00
2023-02-09T05:28:18.038Z,2.00
2023-02-09T05:30:45.170Z,2.00
2023-02-09T05:33:12.182Z,2.00
2023-02-09T05:35:39.000Z,2.00
2023-02-09T05:38:05.825Z,2.00
2023-02-09T05:40:32.603Z,2.00
2023-02-09T05:42:59.771Z,2.00
2023-02-09T05:45:26.583Z,2.00
2023-02-09T05:47:53.696Z,2.00
2023-02-09T05:50:20.410Z,2.00
2023-02-09T05:52:47.104Z,2.00
2023-02-09T05:55:13.852Z,2.00
2023-02-09T05:57:40.672Z,2.00
2023-02-09T06:00:08.512Z,2.00
2023-02-09T06:02:35.276Z,2.00
2023-02-09T06:05:01.966Z,2.00
2023-02-09T06:07:28.848Z,2.00
2023-02-09T06:09:55.758Z,1.90
2023-02-09T06:12:22.597Z,2.00
2023-02-09T06:14:49.348Z,2.00
2023-02-09T06:17:16.107Z,2.00
2023-02-09T06:19:42.949Z,2.00
2023-02-09T06:22:09.619Z,2.00
2023-02-09T06:24:36.382Z,2.00
2023-02-09T06:27:03.133Z,2.00
2023-02-09T06:29:29.966Z,2.00
2023-02-09T06:31:56.780Z,2.00
2023-02-09T06:34:23.631Z,2.00
2023-02-09T06:36:50.351Z,2.00
2023-02-09T06:39:17.061Z,2.00
2023-02-09T06:41:43.766Z,2.00
2023-02-09T06:44:11.405Z,2.00
2023-02-09T06:46:39.168Z,2.00
2023-02-09T06:49:05.993Z,2.00
2023-02-09T06:51:33.184Z,2.00
2023-02-09T06:54:00.140Z,2.00
2023-02-09T06:56:26.891Z,2.00
2023-02-09T06:58:53.749Z,2.00
2023-02-09T07:01:20.543Z,2.00
2023-02-09T07:03:47.369Z,2.00
2023-02-09T07:06:19.249Z,2.00
2023-02-09T07:08:46.423Z,2.00
2023-02-09T07:11:15.432Z,2.10
2023-02-09T07:13:43.003Z,2.10
2023-02-09T07:16:11.506Z,2.10
2023-02-09T07:18:38.636Z,2.10
2023-02-09T07:21:10.958Z,2.10
2023-02-09T07:23:38.185Z,2.10
2023-02-09T07:26:07.027Z,2.10
2023-02-09T07:28:35.403Z,2.10
2023-02-09T07:31:07.637Z,2.20
2023-02-09T07:33:34.998Z,2.20
2023-02-09T07:36:06.667Z,2.20
2023-02-09T07:38:33.850Z,2.20
2023-02-09T07:41:02.200Z,2.10
2023-02-09T07:43:29.368Z,2.20
2023-02-09T07:46:07.128Z,2.20
2023-02-09T07:48:35.121Z,2.20
2023-02-09T07:51:02.303Z,2.20
2023-02-09T07:53:29.096Z,2.30
2023-02-09T07:55:55.931Z,2.30
2023-02-09T07:58:22.795Z,2.30
2023-02-09T08:00:50.996Z,2.30
2023-02-09T08:03:20.558Z,2.40
2023-02-09T08:06:10.334Z,2.40
2023-02-09T08:08:37.069Z,2.40
2023-02-09T08:11:05.493Z,2.50
2023-02-09T08:13:35.808Z,2.50
2023-02-09T08:16:04.936Z,2.50
2023-02-09T08:18:41.012Z,2.50
2023-02-09T08:21:10.805Z,2.60
2023-02-09T08:23:40.574Z,2.60
2023-02-09T08:26:11.373Z,2.70
2023-02-09T08:28:44.916Z,2.70
2023-02-09T08:31:13.602Z,2.80
2023-02-09T08:33:41.119Z,2.70
2023-02-09T08:36:08.466Z,2.80
2023-02-09T08:38:35.489Z,2.80
2023-02-09T08:41:04.659Z,2.90
2023-02-09T08:43:32.031Z,2.90
2023-02-09T08:46:07.882Z,3.00
2023-02-09T08:48:36.542Z,3.00
2023-02-09T08:51:03.785Z,3.10
2023-02-09T08:53:30.583Z,3.10
2023-02-09T08:55:57.292Z,3.10
2023-02-09T08:58:25.171Z,3.20
2023-02-09T09:00:53.818Z,3.30
2023-02-09T09:03:20.586Z,3.30
2023-02-09T09:05:47.716Z,3.40
2023-02-09T09:08:14.607Z,3.40
2023-02-09T09:10:41.329Z,3.50
2023-02-09T09:13:08.097Z,3.60
2023-02-09T09:15:35.958Z,3.60
2023-02-09T09:18:02.819Z,3.70
2023-02-09T09:20:29.512Z,3.70
2023-02-09T09:22:59.457Z,3.80
2023-02-09T09:25:26.261Z,3.80
2023-02-09T09:27:52.970Z,3.90
2023-02-09T09:30:19.842Z,3.80
2023-02-09T09:32:46.581Z,3.90
2023-02-09T09:35:13.367Z,3.90
2023-02-09T09:37:40.623Z,4.00
2023-02-09T09:40:12.277Z,3.90
2023-02-09T09:42:47.006Z,3.90
2023-02-09T09:45:19.187Z,4.00
2023-02-09T09:47:45.987Z,4.00
2023-02-09T09:50:26.626Z,4.10
2023-02-09T09:53:12.547Z,4.10
2023-02-09T09:55:39.656Z,4.20
2023-02-09T09:58:07.583Z,4.20
2023-02-09T10:00:41.173Z,4.30
2023-02-09T10:03:19.692Z,4.30
2023-02-09T10:05:52.382Z,4.40
2023-02-09T10:08:30.291Z,4.40
2023-02-09T10:10:57.002Z,4.40
2023-02-09T10:13:25.185Z,4.40
2023-02-09T10:15:55.248Z,4.50
2023-02-09T10:18:28.272Z,4.50
2023-02-09T10:20:56.817Z,4.60
2023-02-09T10:23:27.214Z,4.60
2023-02-09T10:26:17.177Z,4.60
2023-02-09T10:28:56.583Z,4.70
2023-02-09T10:31:28.667Z,4.70
2023-02-09T10:34:06.209Z,4.70
2023-02-09T10:36:50.400Z,4.80
2023-02-09T10:39:30.137Z,4.80
2023-02-09T10:42:16.333Z,4.90
2023-02-09T10:44:48.917Z,5.00
2023-02-09T10:47:21.428Z,5.10
2023-02-09T10:49:55.412Z,5.20
2023-02-09T10:52:31.488Z,5.20
2023-02-09T10:55:15.684Z,5.30
2023-02-09T10:57:42.717Z,5.40
2023-02-09T11:00:15.351Z,5.50
2023-02-09T11:02:52.836Z,5.70
2023-02-09T11:05:22.586Z,5.80
2023-02-09T11:07:57.830Z,5.90
2023-02-09T11:10:26.117Z,6.00
2023-02-09T11:12:52.901Z,6.10
2023-02-09T11:15:26.618Z,6.10
2023-02-09T11:18:23.640Z,6.10
2023-02-09T11:20:58.663Z,6.00
2023-02-09T11:23:55.911Z,6.00
2023-02-09T11:26:47.584Z,6.00
2023-02-09T11:29:23.046Z,6.00
2023-02-09T11:32:11.818Z,6.10
2023-02-09T11:35:09.378Z,6.10
2023-02-09T11:37:48.263Z,6.10
2023-02-09T11:40:26.825Z,6.20
2023-02-09T11:43:02.588Z,6.20
2023-02-09T11:45:43.939Z,6.20
2023-02-09T11:48:26.093Z,6.30
2023-02-09T11:51:11.304Z,6.40
2023-02-09T11:53:46.085Z,6.50
2023-02-09T11:56:22.323Z,6.50
2023-02-09T11:58:55.034Z,6.70
2023-02-09T12:02:04.373Z,6.80
2023-02-09T12:04:50.054Z,6.90
2023-02-09T12:07:50.757Z,7.00
2023-02-09T12:10:47.556Z,7.00
2023-02-09T12:13:29.727Z,7.00
2023-02-09T12:16:00.788Z,7.10
2023-02-09T12:18:30.579Z,7.00
2023-02-09T12:21:05.518Z,7.00
2023-02-09T12:23:43.552Z,6.90
2023-02-09T12:26:13.012Z,6.90
2023-02-09T12:28:47.443Z,6.90
2023-02-09T12:31:21.005Z,7.00
2023-02-09T12:33:47.686Z,7.00
2023-02-09T12:36:14.438Z,6.90
2023-02-09T12:38:53.529Z,6.90
2023-02-09T12:41:31.516Z,6.90
2023-02-09T12:44:10.524Z,6.90
2023-02-09T12:46:46.821Z,7.00
2023-02-09T12:49:13.775Z,7.00
2023-02-09T12:51:55.564Z,7.00
2023-02-09T12:54:36.501Z,7.10
2023-02-09T12:57:15.652Z,7.10
2023-02-09T12:59:59.666Z,7.00
2023-02-09T13:02:48.395Z,7.10
2023-02-09T13:05:15.145Z,7.10
2023-02-09T13:08:04.984Z,7.00
2023-02-09T13:11:01.070Z,7.00
2023-02-09T13:13:45.143Z,7.00
2023-02-09T13:16:20.399Z,6.90
2023-02-09T13:19:05.394Z,6.90
2023-02-09T13:21:53.955Z,6.80
2023-02-09T13:24:34.307Z,6.80
2023-02-09T13:27:01.240Z,6.80
2023-02-09T13:29:32.302Z,6.80
2023-02-09T13:32:08.060Z,6.80
2023-02-09T13:35:20.372Z,6.90
2023-02-09T13:37:49.087Z,6.90
2023-02-09T13:40:21.815Z,6.90
2023-02-09T13:43:02.224Z,6.90
2023-02-09T13:45:29.517Z,6.90
2023-02-09T13:47:59.285Z,6.90
2023-02-09T13:50:31.784Z,6.90
2023-02-09T13:53:09.822Z,6.90
2023-02-09T13:55:39.937Z,6.90
2023-02-09T13:58:14.275Z,6.90
2023-02-09T14:00:44.832Z,7.00
2023-02-09T14:03:23.265Z,7.00
2023-02-09T14:06:18.098Z,7.00
2023-02-09T14:08:46.570Z,7.10
2023-02-09T14:11:41.877Z,7.10
2023-02-09T14:14:26.354Z,7.20
2023-02-09T14:17:24.346Z,7.20
2023-02-09T14:19:52.659Z,7.20
2023-02-09T14:22:39.525Z,7.10
2023-02-09T14:25:15.548Z,7.10
2023-02-09T14:27:47.127Z,7.20
2023-02-09T14:30:17.010Z,7.20
2023-02-09T14:32:48.404Z,7.20
2023-02-09T14:35:23.894Z,7.20
2023-02-09T14:37:53.434Z,7.30
2023-02-09T14:40:34.471Z,7.30
2023-02-09T14:43:10.059Z,7.20
2023-02-09T14:45:46.466Z,7.20
2023-02-09T14:48:22.418Z,7.20
2023-02-09T14:50:50.586Z,7.20
2023-02-09T14:53:18.615Z,7.20
2023-02-09T14:55:45.870Z,7.20
2023-02-09T14:58:12.792Z,7.30
2023-02-09T15:00:39.500Z,7.30
2023-02-09T15:03:06.235Z,7.30
2023-02-09T15:05:33.055Z,7.30
2023-02-09T15:08:05.782Z,7.30
2023-02-09T15:10:45.353Z,7.40
2023-02-09T15:13:14.515Z,7.40
2023-02-09T15:15:42.867Z,7.40
2023-02-09T15:18:20.352Z,7.50
2023-02-09T15:20:47.690Z,7.50
2023-02-09T15:23:14.840Z,7.50
2023-02-09T15:25:42.394Z,7.50
2023-02-09T15:28:32.263Z,7.60
2023-02-09T15:30:59.773Z,7.70
2023-02-09T15:33:28.435Z,7.60
2023-02-09T15:35:58.961Z,7.70
2023-02-09T15:38:27.591Z,7.80
2023-02-09T15:41:12.946Z,7.80
2023-02-09T15:43:58.328Z,7.80
2023-02-09T15:46:43.965Z,7.90
2023-02-09T15:49:10.738Z,7.90
2023-02-09T15:51:39.198Z,8.00
2023-02-09T15:54:21.522Z,8.00
2023-02-09T15:56:48.370Z,8.00
2023-02-09T15:59:22.980Z,8.00
2023-02-09T16:01:50.430Z,8.00
2023-02-09T16:04:17.266Z,8.00
2023-02-09T16:06:49.255Z,8.00
2023-02-09T16:09:26.754Z,7.90
2023-02-09T16:11:53.872Z,8.00
2023-02-09T16:14:22.804Z,8.00
2023-02-09T16:16:50.087Z,7.90
2023-02-09T16:19:17.253Z,7.90
2023-02-09T16:21:48.947Z,7.90
2023-02-09T16:24:37.200Z,7.90
2023-02-09T16:27:15.475Z,7.90
2023-02-09T16:29:42.674Z,7.80
2023-02-09T16:32:21.996Z,7.80
2023-02-09T16:34:49.233Z,7.70
2023-02-09T16:37:23.831Z,7.70
2023-02-09T16:39:50.582Z,7.60
2023-02-09T16:42:17.375Z,7.60
2023-02-09T16:44:44.146Z,7.50
2023-02-09T16:47:25.256Z,7.50
2023-02-09T16:49:57.718Z,7.50
2023-02-09T16:52:26.034Z,7.40
2023-02-09T16:54:55.873Z,7.40
2023-02-09T16:57:24.614Z,7.40
2023-02-09T16:59:52.767Z,7.40
2023-02-09T17:02:42.470Z,7.40
2023-02-09T17:05:24.332Z,7.30
2023-02-09T17:07:54.855Z,7.30
2023-02-09T17:10:24.749Z,7.20
2023-02-09T17:12:53.609Z,7.20
2023-02-09T17:15:30.181Z,7.20
2023-02-09T17:18:05.114Z,7.10
2023-02-09T17:20:44.065Z,7.10
2023-02-09T17:23:16.060Z,7.00
2023-02-09T17:25:43.390Z,7.00
2023-02-09T17:28:10.453Z,7.00
2023-02-09T17:30:37.808Z,6.90
2023-02-09T17:33:08.016Z,6.90
2023-02-09T17:36:10.234Z,6.80
2023-02-09T17:38:33.721Z,6.80
2023-02-09T17:41:05.405Z,6.70
2023-02-09T17:43:32.295Z,6.70
2023-02-09T17:45:59.059Z,6.60
2023-02-09T17:48:25.841Z,6.60
2023-02-09T17:50:56.282Z,6.60
2023-02-09T17:53:26.789Z,6.60
2023-02-09T17:55:56.326Z,6.50
2023-02-09T17:58:24.323Z,6.50
2023-02-09T18:00:53.223Z,6.50
2023-02-09T18:03:22.465Z,6.40
2023-02-09T18:06:01.735Z,6.40
2023-02-09T18:08:28.695Z,6.40
2023-02-09T18:10:58.617Z,6.40
2023-02-09T18:13:27.087Z,6.30
2023-02-09T18:15:54.645Z,6.30
2023-02-09T18:18:24.076Z,6.30
2023-02-09T18:20:51.056Z,6.30
2023-02-09T18:23:17.763Z,6.20
2023-02-09T18:25:46.583Z,6.20
2023-02-09T18:28:15.054Z,6.20
2023-02-09T18:30:42.909Z,6.20
2023-02-09T18:33:11.182Z,6.20
2023-02-09T18:35:39.303Z,6.20
2023-02-09T18:38:09.460Z,6.10
2023-02-09T18:40:37.383Z,6.10
2023-02-09T18:43:05.760Z,6.10
2023-02-09T18:45:33.268Z,6.00
2023-02-09T18:48:00.774Z,6.00
2023-02-09T18:50:30.308Z,6.00
2023-02-09T18:53:02.209Z,6.00
2023-02-09T18:55:31.993Z,5.90
2023-02-09T18:58:00.268Z,5.90
2023-02-09T19:00:27.600Z,5.80
2023-02-09T19:02:58.816Z,5.80
2023-02-09T19:05:28.657Z,5.80
2023-02-09T19:07:56.264Z,5.80
2023-02-09T19:10:23.859Z,5.80
2023-02-09T19:12:50.565Z,5.70
2023-02-09T19:15:18.352Z,5.80
2023-02-09T19:17:45.820Z,5.70
2023-02-09T19:20:21.436Z,5.80
2023-02-09T19:22:51.412Z,5.70
2023-02-09T19:25:19.778Z,5.70
2023-02-09T19:27:46.534Z,5.60
2023-02-09T19:30:18.458Z,5.60
2023-02-09T19:32:45.200Z,5.60
2023-02-09T19:35:12.043Z,5.50
2023-02-09T19:37:40.465Z,5.50
2023-02-09T19:40:17.483Z,5.50
2023-02-09T19:42:44.170Z,5.40
2023-02-09T19:45:10.867Z,5.40
2023-02-09T19:47:38.315Z,5.30
2023-02-09T19:50:05.463Z,5.40
2023-02-09T19:52:34.781Z,5.40
2023-02-09T19:55:02.489Z,5.30
2023-02-09T19:57:29.274Z,5.30
2023-02-09T19:59:56.006Z,5.30
2023-02-09T20:02:22.744Z,5.20
2023-02-09T20:04:49.557Z,5.30
2023-02-09T20:07:16.287Z,5.20
2023-02-09T20:09:43.286Z,5.20
2023-02-09T20:12:09.990Z,5.20
2023-02-09T20:14:36.823Z,5.20
2023-02-09T20:17:03.558Z,5.20
2023-02-09T20:19:30.550Z,5.10
2023-02-09T20:21:57.290Z,5.10
2023-02-09T20:24:24.250Z,5.10
2023-02-09T20:26:50.980Z,4.90
2023-02-09T20:29:19.154Z,5.00
2023-02-09T20:31:45.980Z,4.90
2023-02-09T20:34:14.120Z,4.90
2023-02-09T20:36:43.018Z,4.80
2023-02-09T20:39:13.454Z,4.70
2023-02-09T20:42:00.112Z,4.70
2023-02-09T20:44:45.321Z,4.70
2023-02-09T20:47:12.100Z,4.70
2023-02-09T20:49:40.542Z,4.70
2023-02-09T20:52:08.920Z,4.70
2023-02-09T20:54:36.410Z,4.70
2023-02-09T20:57:04.309Z,4.70
2023-02-09T20:59:31.187Z,4.70
2023-02-09T21:01:58.796Z,4.70
2023-02-09T21:04:27.079Z,4.70
2023-02-09T21:06:54.200Z,4.70
2023-02-09T21:09:26.202Z,4.70
2023-02-09T21:11:54.253Z,4.60
2023-02-09T21:14:32.586Z,4.70
2023-02-09T21:17:07.708Z,4.60
2023-02-09T21:19:34.785Z,4.60
2023-02-09T21:22:01.506Z,4.60
2023-02-09T21:24:28.355Z,4.50
2023-02-09T21:26:55.099Z,4.50
2023-02-09T21:29:21.933Z,4.50
2023-02-09T21:31:48.800Z,4.50
2023-02-09T21:34:16.755Z,4.50
2023-02-09T21:36:44.208Z,4.40
2023-02-09T21:39:10.977Z,4.50
2023-02-09T21:41:56.176Z,4.40
2023-02-09T21:44:23.373Z,4.40
2023-02-09T21:46:50.720Z,4.40
2023-02-09T21:49:17.563Z,4.30
2023-02-09T21:51:44.660Z,4.30
2023-02-09T21:54:16.083Z,4.30
2023-02-09T21:56:43.296Z,4.30
2023-02-09T21:59:10.249Z,4.40
2023-02-09T22:01:37.604Z,4.40
2023-02-09T22:04:05.131Z,4.40
2023-02-09T22:06:32.364Z,4.40
2023-02-09T22:09:02.596Z,4.40
2023-02-09T22:11:29.789Z,4.40
2023-02-09T22:13:56.644Z,4.40
2023-02-09T22:16:24.364Z,4.40
2023-02-09T22:18:51.698Z,4.30
2023-02-09T22:21:18.972Z,4.30
2023-02-09T22:23:45.698Z,4.30
2023-02-09T22:26:13.916Z,4.30
2023-02-09T22:28:41.990Z,4.40
2023-02-09T22:31:14.471Z,4.40
2023-02-09T22:33:41.477Z,4.30
2023-02-09T22:36:11.876Z,4.30
2023-02-09T22:38:39.359Z,4.30
2023-02-09T22:41:21.946Z,4.30
2023-02-09T22:44:19.397Z,4.30
2023-02-09T22:46:46.505Z,4.30
2023-02-09T22:49:19.431Z,4.30
2023-02-09T22:51:48.067Z,4.30
2023-02-09T22:54:16.671Z,4.40
2023-02-09T22:56:44.255Z,4.30
2023-02-09T22:59:12.780Z,4.30
2023-02-09T23:01:39.948Z,4.40
2023-02-09T23:04:06.871Z,4.40
2023-02-09T23:06:33.922Z,4.40
2023-02-09T23:09:03.806Z,4.40
2023-02-09T23:11:31.677Z,4.50
2023-02-09T23:14:14.776Z,4.40
2023-02-09T23:16:42.918Z,4.50
2023-02-09T23:19:13.235Z,4.40
2023-02-09T23:21:43.148Z,4.50
2023-02-09T23:24:10.237Z,4.50
2023-02-09T23:26:37.690Z,4.40
2023-02-09T23:29:07.218Z,4.40
2023-02-09T23:31:34.765Z,4.40
2023-02-09T23:34:01.502Z,4.50
2023-02-09T23:36:30.569Z,4.40
2023-02-09T23:39:06.250Z,4.40
2023-02-09T23:41:33.985Z,4.40
2023-02-09T23:44:01.292Z,4.50
2023-02-09T23:46:29.187Z,4.40
2023-02-09T23:48:57.293Z,4.50
2023-02-09T23:51:28.431Z,4.40
2023-02-09T23:53:57.068Z,4.40
2023-02-09T23:56:24.262Z,4.40
2023-02-09T23:58:53.139Z,4.40
